createdAt,value
2023-05-08T00:00:18.920Z,49.60
2023-05-08T00:02:49.411Z,50.04
2023-05-08T00:05:18.645Z,49.89
2023-05-08T00:07:47.716Z,50.05
2023-05-08T00:10:16.946Z,50.32
2023-05-08T00:12:45.986Z,50.29
2023-05-08T00:15:15.162Z,50.10
2023-05-08T00:17:44.454Z,50.02
2023-05-08T00:20:15.698Z,49.70
2023-05-08T00:22:44.752Z,49.79
2023-05-08T00:25:13.708Z,49.98
2023-05-08T00:27:43.148Z,50.23
2023-05-08T00:30:13.362Z,50.04
2023-05-08T00:32:43.137Z,49.90
2023-05-08T00:35:12.597Z,50.13
2023-05-08T00:37:43.880Z,49.41
2023-05-08T00:40:13.978Z,49.31
2023-05-08T00:42:43.485Z,49.26
2023-05-08T00:45:12.928Z,49.43
2023-05-08T00:47:42.533Z,49.18
2023-05-08T00:50:12.435Z,49.50
2023-05-08T00:52:43.148Z,49.51
2023-05-08T00:55:12.418Z,50.01
2023-05-08T00:57:41.808Z,50.12
2023-05-08T01:00:12.362Z,49.85
2023-05-08T01:02:42.039Z,49.63
2023-05-08T01:05:11.269Z,49.34
2023-05-08T01:07:40.265Z,49.80
2023-05-08T01:10:11.844Z,49.59
2023-05-08T01:12:55.640Z,50.13
2023-05-08T01:15:31.046Z,50.28
2023-05-08T01:18:11.827Z,50.95
2023-05-08T01:21:20.263Z,50.71
2023-05-08T01:24:09.643Z,51.31
2023-05-08T01:27:14.658Z,51.56
2023-05-08T01:30:24.799Z,51.38
2023-05-08T01:33:02.748Z,51.37
2023-05-08T01:35:41.225Z,51.59
2023-05-08T01:38:16.462Z,51.35
2023-05-08T01:40:55.082Z,51.97
2023-05-08T01:43:31.297Z,52.04
2023-05-08T01:46:08.045Z,52.07
2023-05-08T01:48:49.526Z,51.67
2023-05-08T01:51:22.966Z,51.84
2023-05-08T01:53:57.109Z,52.27
2023-05-08T01:56:30.053Z,51.88
2023-05-08T01:59:02.112Z,51.91
2023-05-08T02:01:34.789Z,51.68
2023-05-08T02:04:08.286Z,52.04
2023-05-08T02:06:41.716Z,51.94
2023-05-08T02:09:12.063Z,52.14
2023-05-08T02:11:45.200Z,51.78
2023-05-08T02:14:22.409Z,52.10
2023-05-08T02:16:53.953Z,52.15
2023-05-08T02:19:26.870Z,52.40
2023-05-08T02:21:59.870Z,52.30
2023-05-08T02:24:29.234Z,52.12
2023-05-08T02:27:00.484Z,52.11
2023-05-08T02:29:30.612Z,51.75
2023-05-08T02:32:02.683Z,51.77
2023-05-08T02:34:33.840Z,52.55
2023-05-08T02:37:05.026Z,52.42
2023-05-08T02:39:36.532Z,53.14
2023-05-08T02:42:06.379Z,52.64
2023-05-08T02:44:35.680Z,52.51
2023-05-08T02:47:16.195Z,52.87
2023-05-08T02:49:53.391Z,53.14
2023-05-08T02:52:29.879Z,53.23
2023-05-08T02:55:03.133Z,52.86
2023-05-08T02:57:40.987Z,52.33
2023-05-08T03:00:19.006Z,52.10
2023-05-08T03:02:57.062Z,53.11
2023-05-08T03:05:38.815Z,53.09
2023-05-08T03:08:15.322Z,52.92
2023-05-08T03:10:48.391Z,52.90
2023-05-08T03:13:20.903Z,52.96
2023-05-08T03:15:56.651Z,53.21
2023-05-08T03:18:32.290Z,53.16
2023-05-08T03:21:04.626Z,53.00
2023-05-08T03:23:37.213Z,53.23
2023-05-08T03:26:07.255Z,52.69
2023-05-08T03:28:40.415Z,52.71
2023-05-08T03:31:11.526Z,52.40
2023-05-08T03:34:03.697Z,52.50
2023-05-08T03:36:35.618Z,52.20
2023-05-08T03:39:05.986Z,52.40
2023-05-08T03:41:35.714Z,52.62
2023-05-08T03:44:05.537Z,52.23
2023-05-08T03:46:38.143Z,51.93
2023-05-08T03:49:10.245Z,51.18
2023-05-08T03:51:42.677Z,50.81
2023-05-08T03:54:12.064Z,50.62
2023-05-08T03:56:41.228Z,50.86
2023-05-08T03:59:17.268Z,50.23
2023-05-08T04:01:55.555Z,50.31
2023-05-08T04:04:35.073Z,50.88
2023-05-08T04:07:11.822Z,49.81
2023-05-08T04:09:56.899Z,49.63
2023-05-08T04:12:38.609Z,48.86
2023-05-08T04:20:04.769Z,48.43
2023-05-08T04:22:36.877Z,48.81
2023-05-08T04:25:09.213Z,49.10
2023-05-08T04:27:43.737Z,48.73
2023-05-08T04:30:17.580Z,48.15
2023-05-08T04:32:58.054Z,47.83
2023-05-08T04:35:28.093Z,47.58
2023-05-08T04:38:00.485Z,47.90
2023-05-08T04:40:29.916Z,47.40
2023-05-08T04:43:00.529Z,46.75
2023-05-08T04:45:30.041Z,47.11
2023-05-08T04:47:59.436Z,47.16
2023-05-08T04:50:28.772Z,46.96
2023-05-08T04:52:59.672Z,46.53
2023-05-08T04:55:29.105Z,46.71
2023-05-08T04:57:58.454Z,46.69
2023-05-08T05:00:28.020Z,46.60
2023-05-08T05:02:57.821Z,47.43
2023-05-08T05:05:30.099Z,47.28
2023-05-08T05:08:01.077Z,47.40
2023-05-08T05:10:30.607Z,46.79
2023-05-08T05:12:59.911Z,47.15
2023-05-08T05:15:29.552Z,46.70
2023-05-08T05:17:59.354Z,46.80
2023-05-08T05:20:29.067Z,46.72
2023-05-08T05:22:58.564Z,46.04
2023-05-08T05:25:29.800Z,45.95
2023-05-08T05:27:59.655Z,45.21
2023-05-08T05:30:29.286Z,45.10
2023-05-08T05:32:59.446Z,45.48
2023-05-08T05:35:29.063Z,45.60
2023-05-08T05:37:59.576Z,45.93
2023-05-08T05:40:30.637Z,46.20
2023-05-08T05:43:00.352Z,46.40
2023-05-08T05:45:32.555Z,46.81
2023-05-08T05:48:03.692Z,47.19
2023-05-08T05:50:33.877Z,47.20
2023-05-08T05:53:03.234Z,47.38
2023-05-08T05:55:34.454Z,47.23
2023-05-08T05:58:04.617Z,47.20
2023-05-08T06:00:35.207Z,46.86
2023-05-08T06:03:05.829Z,46.73
2023-05-08T06:05:35.556Z,46.37
2023-05-08T06:08:05.878Z,45.99
2023-05-08T06:10:41.285Z,46.48
2023-05-08T06:13:11.422Z,46.08
2023-05-08T06:15:40.738Z,45.80
2023-05-08T06:18:10.667Z,45.29
2023-05-08T06:20:40.640Z,44.33
2023-05-08T06:23:10.175Z,44.55
2023-05-08T06:25:40.597Z,44.88
2023-05-08T06:28:11.951Z,44.14
2023-05-08T06:30:41.251Z,43.22
2023-05-08T06:33:11.466Z,44.09
2023-05-08T06:35:40.857Z,43.56
2023-05-08T06:38:10.575Z,43.60
2023-05-08T06:40:44.498Z,43.33
2023-05-08T06:43:14.224Z,43.82
2023-05-08T06:45:45.051Z,43.09
2023-05-08T06:48:14.458Z,43.60
2023-05-08T06:50:43.603Z,43.36
2023-05-08T06:53:12.728Z,43.55
2023-05-08T06:55:45.587Z,43.79
2023-05-08T06:58:15.385Z,42.93
2023-05-08T07:00:44.749Z,43.75
2023-05-08T07:03:15.085Z,43.47
2023-05-08T07:05:44.383Z,43.26
2023-05-08T07:08:16.470Z,42.93
2023-05-08T07:10:47.138Z,43.16
2023-05-08T07:13:22.292Z,42.92
2023-05-08T07:15:51.809Z,43.18
2023-05-08T07:18:21.115Z,43.04
2023-05-08T07:20:52.575Z,43.16
2023-05-08T07:23:21.824Z,43.19
2023-05-08T07:25:53.195Z,42.69
2023-05-08T07:28:22.747Z,42.83
2023-05-08T07:30:55.149Z,42.52
2023-05-08T07:33:24.709Z,41.51
2023-05-08T07:35:54.216Z,41.40
2023-05-08T07:38:23.809Z,41.37
2023-05-08T07:40:57.297Z,41.70
2023-05-08T07:43:32.799Z,41.03
2023-05-08T07:46:04.504Z,40.46
2023-05-08T07:48:35.351Z,40.15
2023-05-08T07:51:04.831Z,39.84
2023-05-08T07:53:59.604Z,39.14
2023-05-08T07:56:31.415Z,39.09
2023-05-08T07:59:00.964Z,38.76
2023-05-08T08:01:32.210Z,38.60
2023-05-08T08:04:02.534Z,38.67
2023-05-08T08:06:32.134Z,37.48
2023-05-08T08:09:03.963Z,37.24
2023-05-08T08:11:39.872Z,36.65
2023-05-08T08:14:09.367Z,36.42
2023-05-08T08:16:42.728Z,36.40
2023-05-08T08:19:16.334Z,36.76
2023-05-08T08:21:46.397Z,37.22
2023-05-08T08:24:15.443Z,35.77
2023-05-08T08:26:46.582Z,35.22
2023-05-08T08:29:15.729Z,35.13
2023-05-08T08:31:45.020Z,36.47
2023-05-08T08:34:14.647Z,36.12
2023-05-08T08:36:44.468Z,35.62
2023-05-08T08:39:15.333Z,35.08
2023-05-08T08:41:46.347Z,34.31
2023-05-08T08:44:23.693Z,32.97
2023-05-08T08:46:54.117Z,32.20
2023-05-08T08:49:29.294Z,32.90
2023-05-08T08:52:03.145Z,32.79
2023-05-08T08:54:36.366Z,33.64
2023-05-08T08:57:09.159Z,33.47
2023-05-08T08:59:40.021Z,32.53
2023-05-08T09:02:18.034Z,32.72
2023-05-08T09:04:51.860Z,32.43
2023-05-08T09:07:25.531Z,31.50
2023-05-08T09:10:27.010Z,31.60
2023-05-08T09:12:58.367Z,32.89
2023-05-08T09:15:27.835Z,31.93
2023-05-08T09:17:57.450Z,31.62
2023-05-08T09:20:30.376Z,30.59
2023-05-08T09:23:03.084Z,30.27
2023-05-08T09:25:47.104Z,31.18
2023-05-08T09:28:22.950Z,31.24
2023-05-08T09:30:56.550Z,31.30
2023-05-08T09:33:27.864Z,31.58
2023-05-08T09:36:00.903Z,30.75
2023-05-08T09:38:34.810Z,29.92
2023-05-08T09:41:12.678Z,31.20
2023-05-08T09:44:01.121Z,31.46
2023-05-08T09:46:31.241Z,31.39
2023-05-08T09:49:01.960Z,30.68
2023-05-08T09:51:33.013Z,30.79
2023-05-08T09:54:05.976Z,30.51
2023-05-08T09:56:37.308Z,30.94
2023-05-08T09:59:27.018Z,30.61
2023-05-08T10:01:58.197Z,31.06
2023-05-08T10:04:35.927Z,30.56
2023-05-08T10:07:05.843Z,31.91
2023-05-08T10:09:47.094Z,32.66
2023-05-08T10:12:22.539Z,30.96
2023-05-08T10:14:54.333Z,31.13
2023-05-08T10:17:29.146Z,31.64
2023-05-08T10:20:02.285Z,32.47
2023-05-08T10:22:36.865Z,31.22
2023-05-08T10:25:15.762Z,30.26
2023-05-08T10:27:52.639Z,28.84
2023-05-08T10:30:26.627Z,29.98
2023-05-08T10:32:59.432Z,29.82
2023-05-08T10:35:31.773Z,29.76
2023-05-08T10:38:06.492Z,29.85
2023-05-08T10:40:42.489Z,30.23
2023-05-08T10:43:13.034Z,26.31
2023-05-08T10:45:44.469Z,28.08
2023-05-08T10:48:25.134Z,30.22
2023-05-08T10:51:02.692Z,30.71
2023-05-08T10:53:40.236Z,28.33
2023-05-08T10:56:10.155Z,28.05
2023-05-08T10:58:40.500Z,29.60
2023-05-08T11:02:08.546Z,30.14
2023-05-08T11:04:44.596Z,30.85
2023-05-08T11:07:14.128Z,30.09
2023-05-08T11:09:48.630Z,29.11
2023-05-08T11:12:22.687Z,28.17
2023-05-08T11:15:06.626Z,29.06
2023-05-08T11:17:36.112Z,29.83
2023-05-08T11:20:10.524Z,29.93
2023-05-08T11:22:49.805Z,28.75
2023-05-08T11:25:37.698Z,29.56
2023-05-08T11:28:11.645Z,31.94
2023-05-08T11:30:41.586Z,31.66
2023-05-08T11:33:21.072Z,30.54
2023-05-08T11:36:03.040Z,30.38
2023-05-08T11:42:37.308Z,29.82
2023-05-08T11:45:08.460Z,29.15
2023-05-08T11:47:40.588Z,28.11
2023-05-08T11:50:11.509Z,27.45
2023-05-08T11:52:46.514Z,28.21
2023-05-08T11:55:15.964Z,29.00
2023-05-08T11:57:48.494Z,28.67
2023-05-08T12:00:18.750Z,27.57
2023-05-08T12:02:48.299Z,27.10
2023-05-08T12:05:31.861Z,26.54
2023-05-08T12:08:02.303Z,26.30
2023-05-08T12:10:31.884Z,25.10
2023-05-08T12:13:16.940Z,24.45
2023-05-08T12:15:54.657Z,22.89
2023-05-08T12:18:28.716Z,25.47
2023-05-08T12:21:00.241Z,24.55
2023-05-08T12:23:37.200Z,22.10
2023-05-08T12:26:07.173Z,22.40
2023-05-08T12:28:42.052Z,21.05
2023-05-08T12:31:24.353Z,20.38
2023-05-08T12:33:53.749Z,22.38
2023-05-08T12:36:23.536Z,24.64
2023-05-08T12:38:54.956Z,25.60
2023-05-08T12:41:26.664Z,26.24
2023-05-08T12:43:57.322Z,26.30
2023-05-08T12:46:28.196Z,27.10
2023-05-08T12:49:02.820Z,27.92
2023-05-08T12:51:32.675Z,27.52
2023-05-08T12:54:03.998Z,24.53
2023-05-08T12:56:37.137Z,23.45
2023-05-08T12:59:06.368Z,23.62
2023-05-08T13:01:35.873Z,24.75
2023-05-08T13:04:09.114Z,25.45
2023-05-08T13:06:40.126Z,25.73
2023-05-08T13:09:23.359Z,27.11
2023-05-08T13:11:53.375Z,27.83
2023-05-08T13:14:22.990Z,28.17
2023-05-08T13:16:55.432Z,28.46
2023-05-08T13:19:25.260Z,28.90
2023-05-08T13:21:58.204Z,29.01
2023-05-08T13:24:29.245Z,28.99
2023-05-08T13:26:59.008Z,28.85
2023-05-08T13:29:28.605Z,29.95
2023-05-08T13:32:09.377Z,29.94
2023-05-08T13:34:47.304Z,29.63
2023-05-08T13:37:24.385Z,29.81
2023-05-08T13:39:55.477Z,29.47
2023-05-08T13:42:25.401Z,29.22
2023-05-08T13:44:54.699Z,28.75
2023-05-08T13:47:24.590Z,27.98
2023-05-08T13:49:54.166Z,28.32
2023-05-08T13:52:25.325Z,28.92
2023-05-08T13:54:59.469Z,29.46
2023-05-08T13:57:28.887Z,27.59
2023-05-08T13:59:58.313Z,26.21
2023-05-08T14:02:28.087Z,24.94
2023-05-08T14:04:57.669Z,24.90
2023-05-08T14:07:28.221Z,26.80
2023-05-08T14:09:58.879Z,28.24
2023-05-08T14:12:28.966Z,28.59
2023-05-08T14:15:00.795Z,28.62
2023-05-08T14:17:34.319Z,28.89
2023-05-08T14:20:06.880Z,28.77
2023-05-08T14:22:36.803Z,28.27
2023-05-08T14:25:09.794Z,28.90
2023-05-08T14:27:39.605Z,28.34
2023-05-08T14:30:11.987Z,28.71
2023-05-08T14:32:46.813Z,28.22
2023-05-08T14:35:19.584Z,27.52
2023-05-08T14:37:49.261Z,27.48
2023-05-08T14:40:22.055Z,27.64
2023-05-08T14:42:53.075Z,27.87
2023-05-08T14:45:25.381Z,28.13
2023-05-08T14:47:57.392Z,27.52
2023-05-08T14:50:29.987Z,27.97
2023-05-08T14:53:27.724Z,28.23
2023-05-08T14:56:08.014Z,29.56
2023-05-08T14:58:37.418Z,29.04
2023-05-08T15:01:12.883Z,29.83
2023-05-08T15:03:43.099Z,29.18
2023-05-08T15:06:53.284Z,29.44
2023-05-08T15:09:36.296Z,28.98
2023-05-08T15:12:22.507Z,29.00
2023-05-08T15:17:58.650Z,26.34
2023-05-08T15:24:36.199Z,26.60
2023-05-08T15:27:20.417Z,26.16
2023-05-08T15:33:11.730Z,28.22
2023-05-08T15:35:44.153Z,28.37
2023-05-08T15:38:13.673Z,28.97
2023-05-08T15:40:45.316Z,30.44
2023-05-08T15:43:23.935Z,30.43
2023-05-08T15:45:55.897Z,30.87
2023-05-08T15:48:28.900Z,31.21
2023-05-08T15:51:00.404Z,31.54
2023-05-08T15:53:30.693Z,31.79
2023-05-08T15:56:01.202Z,31.65
2023-05-08T15:58:32.552Z,31.48
2023-05-08T16:01:08.851Z,32.15
2023-05-08T16:03:42.735Z,32.53
2023-05-08T16:06:12.550Z,32.42
2023-05-08T16:08:44.058Z,32.51
2023-05-08T16:11:14.036Z,32.80
2023-05-08T16:13:43.779Z,33.20
2023-05-08T16:16:15.152Z,33.18
2023-05-08T16:18:47.045Z,33.21
2023-05-08T16:21:17.028Z,33.73
2023-05-08T16:23:46.646Z,33.24
2023-05-08T16:26:23.057Z,33.55
2023-05-08T16:28:54.194Z,33.46
2023-05-08T16:31:28.147Z,33.63
2023-05-08T16:33:58.931Z,33.47
2023-05-08T16:36:31.829Z,33.79
2023-05-08T16:39:02.540Z,33.56
2023-05-08T16:41:35.955Z,33.44
2023-05-08T16:44:07.918Z,33.60
2023-05-08T16:46:40.949Z,33.72
2023-05-08T16:49:12.515Z,33.47
2023-05-08T16:51:44.529Z,33.95
2023-05-08T16:54:14.498Z,33.95
2023-05-08T16:56:48.534Z,33.99
2023-05-08T16:59:20.429Z,34.36
2023-05-08T17:01:51.447Z,34.46
2023-05-08T17:04:21.965Z,34.74
2023-05-08T17:06:54.202Z,35.13
2023-05-08T17:09:25.413Z,35.44
2023-05-08T17:11:54.745Z,35.47
2023-05-08T17:14:25.145Z,35.74
2023-05-08T17:16:56.915Z,35.81
2023-05-08T17:19:27.363Z,36.41
2023-05-08T17:21:58.954Z,36.72
2023-05-08T17:24:30.921Z,35.86
2023-05-08T17:27:00.831Z,36.32
2023-05-08T17:29:33.811Z,36.55
2023-05-08T17:32:05.218Z,36.69
2023-05-08T17:34:37.183Z,36.33
2023-05-08T17:37:07.838Z,36.61
2023-05-08T17:39:38.644Z,36.50
2023-05-08T17:42:07.870Z,36.92
2023-05-08T17:44:37.384Z,36.67
2023-05-08T17:47:09.263Z,36.84
2023-05-08T17:49:38.755Z,37.02
2023-05-08T17:52:10.301Z,37.10
2023-05-08T17:54:39.438Z,37.41
2023-05-08T17:57:18.076Z,37.43
2023-05-08T17:59:49.629Z,37.56
2023-05-08T18:02:21.114Z,37.57
2023-05-08T18:04:50.502Z,37.75
2023-05-08T18:07:20.238Z,37.92
2023-05-08T18:09:52.216Z,37.98
2023-05-08T18:12:21.771Z,37.89
2023-05-08T18:14:54.091Z,37.83
2023-05-08T18:17:25.034Z,38.11
2023-05-08T18:19:58.772Z,38.78
2023-05-08T18:22:29.682Z,38.56
2023-05-08T18:25:00.729Z,38.68
2023-05-08T18:27:33.583Z,39.23
2023-05-08T18:30:03.654Z,39.25
2023-05-08T18:32:38.570Z,38.99
2023-05-08T18:35:09.053Z,39.31
2023-05-08T18:37:38.995Z,39.58
2023-05-08T18:40:10.158Z,40.02
2023-05-08T18:42:40.722Z,39.82
2023-05-08T18:45:12.130Z,40.08
2023-05-08T18:47:42.835Z,40.26
2023-05-08T18:50:12.538Z,40.31
2023-05-08T18:52:42.271Z,40.30
2023-05-08T18:55:11.989Z,40.47
2023-05-08T18:57:45.864Z,41.06
2023-05-08T19:00:17.626Z,41.15
2023-05-08T19:02:48.809Z,41.33
2023-05-08T19:05:19.023Z,41.17
2023-05-08T19:07:48.353Z,41.78
2023-05-08T19:10:21.167Z,41.44
2023-05-08T19:12:51.075Z,42.05
2023-05-08T19:15:20.619Z,42.28
2023-05-08T19:17:52.930Z,42.13
2023-05-08T19:20:22.614Z,42.90
2023-05-08T19:22:51.875Z,43.02
2023-05-08T19:25:21.229Z,42.76
2023-05-08T19:27:50.944Z,43.35
2023-05-08T19:30:22.854Z,42.96
2023-05-08T19:32:54.206Z,42.90
2023-05-08T19:35:28.951Z,43.17
2023-05-08T19:38:16.348Z,43.45
2023-05-08T19:40:55.362Z,43.20
2023-05-08T19:43:26.801Z,42.99
2023-05-08T19:45:57.005Z,42.90
2023-05-08T19:48:35.412Z,43.46
2023-05-08T19:51:10.972Z,43.65
2023-05-08T19:53:40.959Z,42.91
2023-05-08T19:56:10.370Z,42.87
2023-05-08T19:58:39.822Z,42.93
2023-05-08T20:01:08.916Z,43.25
2023-05-08T20:03:39.512Z,42.83
2023-05-08T20:06:09.152Z,42.81
2023-05-08T20:08:38.721Z,42.76
2023-05-08T20:11:11.793Z,42.80
2023-05-08T20:13:41.401Z,42.77
2023-05-08T20:16:10.823Z,43.26
2023-05-08T20:18:41.871Z,42.87
2023-05-08T20:21:11.244Z,43.45
2023-05-08T20:23:47.120Z,43.40
2023-05-08T20:26:19.103Z,42.90
2023-05-08T20:28:49.183Z,43.57
2023-05-08T20:31:18.582Z,43.53
2023-05-08T20:33:54.369Z,43.20
2023-05-08T20:36:25.505Z,43.26
2023-05-08T20:38:54.983Z,43.89
2023-05-08T20:41:24.278Z,44.07
2023-05-08T20:43:54.203Z,44.03
2023-05-08T20:46:32.338Z,43.96
2023-05-08T20:49:04.158Z,44.49
2023-05-08T20:51:33.947Z,44.75
2023-05-08T20:54:03.173Z,45.23
2023-05-08T20:56:32.412Z,44.75
2023-05-08T20:59:03.047Z,44.70
2023-05-08T21:01:32.545Z,44.86
2023-05-08T21:04:03.578Z,44.67
2023-05-08T21:06:32.815Z,44.68
2023-05-08T21:09:06.492Z,44.69
2023-05-08T21:11:36.305Z,44.60
2023-05-08T21:14:05.647Z,45.21
2023-05-08T21:16:38.373Z,45.30
2023-05-08T21:19:13.143Z,45.63
2023-05-08T21:21:45.840Z,46.30
2023-05-08T21:24:15.658Z,46.41
2023-05-08T21:26:45.452Z,46.70
2023-05-08T21:29:15.104Z,47.42
2023-05-08T21:31:44.246Z,47.60
2023-05-08T21:34:15.584Z,47.72
2023-05-08T21:36:44.707Z,49.34
2023-05-08T21:39:14.925Z,49.23
2023-05-08T21:41:44.579Z,48.28
2023-05-08T21:44:15.452Z,48.38
2023-05-08T21:46:45.304Z,48.90
2023-05-08T21:49:15.840Z,48.92
2023-05-08T21:51:46.240Z,49.36
2023-05-08T21:54:17.827Z,49.55
2023-05-08T21:56:46.894Z,50.06
2023-05-08T21:59:16.055Z,51.19
2023-05-08T22:01:48.454Z,50.63
2023-05-08T22:04:19.348Z,51.61
2023-05-08T22:06:48.582Z,53.02
2023-05-08T22:09:17.972Z,53.02
2023-05-08T22:11:47.289Z,54.02
2023-05-08T22:14:16.646Z,55.65
2023-05-08T22:16:46.362Z,56.01
2023-05-08T22:19:15.941Z,55.60
2023-05-08T22:21:47.257Z,56.42
2023-05-08T22:24:16.917Z,56.85
2023-05-08T22:26:46.050Z,56.88
2023-05-08T22:29:16.678Z,58.31
2023-05-08T22:31:47.442Z,60.54
2023-05-08T22:34:17.773Z,61.03
2023-05-08T22:36:48.404Z,60.87
2023-05-08T22:39:17.536Z,60.37
2023-05-08T22:41:47.500Z,60.78
2023-05-08T22:44:16.770Z,60.46
2023-05-08T22:46:46.138Z,61.92
2023-05-08T22:49:16.260Z,64.64
2023-05-08T22:51:45.864Z,63.58
2023-05-08T22:54:16.304Z,64.71
2023-05-08T22:56:45.786Z,64.77
2023-05-08T22:59:14.738Z,63.29
2023-05-08T23:01:44.066Z,65.42
2023-05-08T23:04:15.742Z,67.33
2023-05-08T23:06:45.463Z,66.70
2023-05-08T23:09:16.173Z,67.37
2023-05-08T23:11:45.371Z,66.43
2023-05-08T23:14:14.584Z,65.93
2023-05-08T23:16:46.294Z,66.51
2023-05-08T23:19:15.347Z,67.29
2023-05-08T23:21:44.530Z,71.66
2023-05-08T23:24:13.541Z,71.38
2023-05-08T23:26:44.623Z,71.56
2023-05-08T23:29:13.955Z,71.21
2023-05-08T23:31:43.295Z,72.99
2023-05-08T23:34:12.514Z,75.01
2023-05-08T23:36:42.288Z,71.17
2023-05-08T23:39:11.520Z,69.31
2023-05-08T23:41:41.044Z,70.62
2023-05-08T23:44:11.716Z,69.38
2023-05-08T23:46:41.085Z,68.88
2023-05-08T23:49:10.407Z,68.49
2023-05-08T23:51:39.647Z,67.21
2023-05-08T23:54:09.106Z,68.38
2023-05-08T23:56:38.180Z,65.70
2023-05-08T23:59:07.805Z,66.23
